Time,TemperatureF,DewpointF,PressureIn,WindDirection,WindDirectionDegrees,WindSpeedMPH,WindSpeedGustMPH,Humidity,HourlyPrecipIn,Conditions,Clouds,dailyrainin,SoftwareType,DateUTC
2013-03-25 00:01:00,47.0,28.0,30.12,East,91,5.0,9.0,48,0.00,,,0.00,,2013-03-25 07:01:00,
2013-03-25 00:12:00,47.0,28.0,30.12,East,91,5.0,9.0,48,0.00,,,0.00,,2013-03-25 07:12:00,
2013-03-25 00:21:00,47.0,28.0,30.12,ENE,77,3.0,7.0,48,0.00,,,0.00,,2013-03-25 07:21:00,
2013-03-25 00:31:00,47.0,28.0,30.12,ENE,77,3.0,7.0,48,0.00,,,0.00,,2013-03-25 07:31:00,
2013-03-25 00:42:00,47.0,28.0,30.12,ENE,77,3.0,7.0,48,0.00,,,0.00,,2013-03-25 07:42:00,
2013-03-25 00:52:00,46.0,28.0,30.12,East,83,2.0,5.0,50,0.00,,,0.00,,2013-03-25 07:52:00,
2013-03-25 01:02:00,46.0,28.0,30.12,East,83,2.0,5.0,50,0.00,,,0.00,,2013-03-25 08:02:00,
2013-03-25 01:12:00,46.0,28.0,30.12,East,83,2.0,5.0,50,0.00,,,0.00,,2013-03-25 08:12:00,
2013-03-25 01:22:00,46.0,29.0,30.11,ENE,70,1.0,2.0,52,0.00,,,0.00,,2013-03-25 08:22:00,
2013-03-25 01:31:00,46.0,29.0,30.11,ENE,70,1.0,2.0,52,0.00,,,0.00,,2013-03-25 08:31:00,
2013-03-25 01:43:00,46.0,29.0,30.11,ENE,70,1.0,2.0,52,0.00,,,0.00,,2013-03-25 08:43:00,
2013-03-25 01:52:00,45.0,31.0,30.11,ENE,70,1.0,4.0,58,0.00,,,0.00,,2013-03-25 08:52:00,
2013-03-25 02:02:00,45.0,31.0,30.11,ENE,70,1.0,4.0,58,0.00,,,0.00,,2013-03-25 09:02:00,
2013-03-25 02:11:00,45.0,31.0,30.11,ENE,70,1.0,4.0,58,0.00,,,0.00,,2013-03-25 09:11:00,
2013-03-25 02:22:00,44.0,30.0,30.10,ENE,72,1.0,2.0,58,0.00,,,0.00,,2013-03-25 09:22:00,
2013-03-25 02:32:00,44.0,30.0,30.10,ENE,72,1.0,2.0,58,0.00,,,0.00,,2013-03-25 09:32:00,
2013-03-25 02:43:00,44.0,30.0,30.10,ENE,72,1.0,2.0,58,0.00,,,0.00,,2013-03-25 09:43:00,
2013-03-25 02:52:00,43.0,30.0,30.10,East,91,1.0,2.0,59,0.00,,,0.00,,2013-03-25 09:52:00,
2013-03-25 03:02:00,43.0,30.0,30.10,East,91,1.0,2.0,59,0.00,,,0.00,,2013-03-25 10:02:00,
2013-03-25 03:12:00,43.0,30.0,30.10,East,91,1.0,2.0,59,0.00,,,0.00,,2013-03-25 10:12:00,
2013-03-25 03:22:00,42.0,30.0,30.09,ENE,68,1.0,2.0,62,0.00,,,0.00,,2013-03-25 10:22:00,
2013-03-25 03:32:00,42.0,30.0,30.09,ENE,68,1.0,2.0,62,0.00,,,0.00,,2013-03-25 10:32:00,
2013-03-25 03:42:00,42.0,30.0,30.09,ENE,68,1.0,2.0,62,0.00,,,0.00,,2013-03-25 10:42:00,
2013-03-25 03:53:00,42.0,30.0,30.09,NE,35,1.0,3.0,62,0.00,,,0.00,,2013-03-25 10:53:00,
2013-03-25 04:02:00,42.0,30.0,30.09,NE,35,1.0,3.0,62,0.00,,,0.00,,2013-03-25 11:02:00,
2013-03-25 04:12:00,42.0,30.0,30.09,NE,35,1.0,3.0,62,0.00,,,0.00,,2013-03-25 11:12:00,
2013-03-25 04:22:00,41.0,29.0,30.09,NE,45,2.0,3.0,61,0.00,,,0.00,,2013-03-25 11:22:00,
2013-03-25 04:31:00,41.0,29.0,30.09,NE,45,2.0,3.0,61,0.00,,,0.00,,2013-03-25 11:31:00,
2013-03-25 04:42:00,41.0,29.0,30.09,NE,45,2.0,3.0,61,0.00,,,0.00,,2013-03-25 11:42:00,
2013-03-25 04:52:00,41.0,28.0,30.09,ENE,57,1.0,1.0,59,0.00,,,0.00,,2013-03-25 11:52:00,
2013-03-25 05:02:00,41.0,28.0,30.09,ENE,57,1.0,1.0,59,0.00,,,0.00,,2013-03-25 12:02:00,
2013-03-25 05:12:00,41.0,28.0,30.09,ENE,57,1.0,1.0,59,0.00,,,0.00,,2013-03-25 12:12:00,
2013-03-25 05:22:00,41.0,29.0,30.09,NNE,22,0.0,1.0,61,0.00,,,0.00,,2013-03-25 12:22:00,
2013-03-25 05:32:00,41.0,29.0,30.09,NNE,22,0.0,1.0,61,0.00,,,0.00,,2013-03-25 12:32:00,
2013-03-25 05:43:00,41.0,29.0,30.09,NNE,22,0.0,1.0,61,0.00,,,0.00,,2013-03-25 12:43:00,
2013-03-25 05:53:00,41.0,30.0,30.09,NNW,330,1.0,1.0,65,0.00,,,0.00,,2013-03-25 12:53:00,
2013-03-25 06:02:00,41.0,30.0,30.09,NNW,330,1.0,1.0,65,0.00,,,0.00,,2013-03-25 13:02:00,
2013-03-25 06:12:00,41.0,30.0,30.09,NNW,330,1.0,1.0,65,0.00,,,0.00,,2013-03-25 13:12:00,
2013-03-25 06:22:00,41.0,34.0,30.08,North,11,2.0,3.0,77,0.00,,,0.00,,2013-03-25 13:22:00,
2013-03-25 06:31:00,41.0,34.0,30.08,North,11,2.0,3.0,77,0.00,,,0.00,,2013-03-25 13:31:00,
2013-03-25 06:43:00,41.0,34.0,30.08,North,11,2.0,3.0,77,0.00,,,0.00,,2013-03-25 13:43:00,
2013-03-25 06:52:00,41.0,33.0,30.07,NE,42,3.0,5.0,73,0.00,,,0.00,,2013-03-25 13:52:00,
2013-03-25 07:02:00,41.0,33.0,30.07,NE,42,3.0,5.0,73,0.00,,,0.00,,2013-03-25 14:02:00,
2013-03-25 07:22:00,40.0,33.0,30.07,ESE,103,2.0,4.0,76,0.00,,,0.00,,2013-03-25 14:22:00,
2013-03-25 07:32:00,40.0,33.0,30.07,ESE,103,2.0,4.0,76,0.00,,,0.00,,2013-03-25 14:32:00,
2013-03-25 07:43:00,40.0,33.0,30.07,ESE,103,2.0,4.0,76,0.00,,,0.00,,2013-03-25 14:43:00,
2013-03-25 07:52:00,40.0,32.0,30.07,NE,56,1.0,3.0,74,0.00,,,0.00,,2013-03-25 14:52:00,
2013-03-25 08:01:00,40.0,32.0,30.07,NE,56,1.0,3.0,74,0.00,,,0.00,,2013-03-25 15:01:00,
2013-03-25 08:12:00,40.0,32.0,30.07,NE,56,1.0,3.0,74,0.00,,,0.00,,2013-03-25 15:12:00,
2013-03-25 08:22:00,43.0,33.0,30.07,ENE,73,2.0,3.0,67,0.00,,,0.00,,2013-03-25 15:22:00,
2013-03-25 08:32:00,43.0,33.0,30.07,ENE,73,2.0,3.0,67,0.00,,,0.00,,2013-03-25 15:32:00,
2013-03-25 08:43:00,43.0,33.0,30.07,ENE,73,2.0,3.0,67,0.00,,,0.00,,2013-03-25 15:43:00,
2013-03-25 08:53:00,44.0,31.0,30.07,East,86,1.0,4.0,61,0.00,,,0.00,,2013-03-25 15:53:00,
2013-03-25 09:02:00,44.0,31.0,30.07,East,86,1.0,4.0,61,0.00,,,0.00,,2013-03-25 16:02:00,
2013-03-25 09:12:00,44.0,31.0,30.07,East,86,1.0,4.0,61,0.00,,,0.00,,2013-03-25 16:12:00,
2013-03-25 09:22:00,44.0,31.0,30.07,East,86,1.0,4.0,61,0.00,,,0.00,,2013-03-25 16:22:00,
2013-03-25 09:32:00,45.0,33.0,30.07,East,89,1.0,3.0,62,0.00,,,0.00,,2013-03-25 16:32:00,
2013-03-25 09:43:00,45.0,33.0,30.07,East,89,1.0,3.0,62,0.00,,,0.00,,2013-03-25 16:43:00,
2013-03-25 09:52:00,46.0,31.0,30.07,NNW,333,1.0,2.0,56,0.00,,,0.00,,2013-03-25 16:52:00,
2013-03-25 10:02:00,46.0,31.0,30.07,NNW,333,1.0,2.0,56,0.00,,,0.00,,2013-03-25 17:02:00,
2013-03-25 10:12:00,46.0,31.0,30.07,NNW,333,1.0,2.0,56,0.00,,,0.00,,2013-03-25 17:12:00,
2013-03-25 10:22:00,48.0,30.0,30.07,NNW,339,2.0,5.0,50,0.00,,,0.00,,2013-03-25 17:22:00,
2013-03-25 10:31:00,48.0,30.0,30.07,NNW,339,2.0,5.0,50,0.00,,,0.00,,2013-03-25 17:31:00,
2013-03-25 10:43:00,48.0,30.0,30.07,NNW,339,2.0,5.0,50,0.00,,,0.00,,2013-03-25 17:43:00,
2013-03-25 10:52:00,49.0,29.0,30.06,NE,50,1.0,5.0,46,0.00,,,0.00,,2013-03-25 17:52:00,
2013-03-25 11:02:00,49.0,29.0,30.06,NE,50,1.0,5.0,46,0.00,,,0.00,,2013-03-25 18:02:00,
2013-03-25 11:12:00,49.0,29.0,30.06,NE,50,1.0,5.0,46,0.00,,,0.00,,2013-03-25 18:12:00,
2013-03-25 11:22:00,51.0,29.0,30.06,ENE,58,2.0,6.0,43,0.00,,,0.00,,2013-03-25 18:22:00,
2013-03-25 11:32:00,51.0,29.0,30.06,ENE,58,2.0,6.0,43,0.00,,,0.00,,2013-03-25 18:32:00,
2013-03-25 11:43:00,51.0,29.0,30.06,ENE,58,2.0,6.0,43,0.00,,,0.00,,2013-03-25 18:43:00,
2013-03-25 11:52:00,51.0,29.0,30.06,North,5,1.0,8.0,43,0.00,,,0.00,,2013-03-25 18:52:00,
2013-03-25 12:02:00,51.0,29.0,30.06,North,5,1.0,8.0,43,0.00,,,0.00,,2013-03-25 19:02:00,
2013-03-25 12:12:00,51.0,29.0,30.06,North,5,1.0,8.0,43,0.00,,,0.00,,2013-03-25 19:12:00,
2013-03-25 12:32:00,52.0,31.0,30.05,NW,309,2.0,7.0,45,0.00,,,0.00,,2013-03-25 19:32:00,
2013-03-25 12:43:00,52.0,31.0,30.05,NW,309,2.0,7.0,45,0.00,,,0.00,,2013-03-25 19:43:00,
2013-03-25 12:52:00,52.0,31.0,30.04,NW,321,5.0,10.0,44,0.00,,,0.00,,2013-03-25 19:52:00,
2013-03-25 13:01:00,52.0,31.0,30.04,NW,321,5.0,10.0,44,0.00,,,0.00,,2013-03-25 20:01:00,
2013-03-25 13:12:00,52.0,31.0,30.04,NW,321,5.0,10.0,44,0.00,,,0.00,,2013-03-25 20:12:00,
2013-03-25 13:22:00,53.0,32.0,30.02,WNW,283,6.0,9.0,44,0.00,,,0.00,,2013-03-25 20:22:00,
2013-03-25 13:32:00,53.0,32.0,30.02,WNW,283,6.0,9.0,44,0.00,,,0.00,,2013-03-25 20:32:00,
2013-03-25 13:42:00,53.0,32.0,30.02,WNW,283,6.0,9.0,44,0.00,,,0.00,,2013-03-25 20:42:00,
2013-03-25 13:52:00,53.0,32.0,30.02,NW,325,4.0,8.0,45,0.00,,,0.00,,2013-03-25 20:52:00,
2013-03-25 14:02:00,53.0,32.0,30.02,NW,325,4.0,8.0,45,0.00,,,0.00,,2013-03-25 21:02:00,
2013-03-25 14:12:00,53.0,32.0,30.02,NW,325,4.0,8.0,45,0.00,,,0.00,,2013-03-25 21:12:00,
2013-03-25 14:22:00,54.0,32.0,30.00,WNW,300,5.0,9.0,43,0.00,,,0.00,,2013-03-25 21:22:00,
2013-03-25 14:32:00,54.0,32.0,30.00,WNW,300,5.0,9.0,43,0.00,,,0.00,,2013-03-25 21:32:00,
2013-03-25 14:43:00,54.0,32.0,30.00,WNW,300,5.0,9.0,43,0.00,,,0.00,,2013-03-25 21:43:00,
2013-03-25 14:52:00,55.0,31.0,29.99,NW,318,4.0,10.0,40,0.00,,,0.00,,2013-03-25 21:52:00,
2013-03-25 15:02:00,55.0,31.0,29.99,NW,318,4.0,10.0,40,0.00,,,0.00,,2013-03-25 22:02:00,
2013-03-25 15:12:00,55.0,31.0,29.99,NW,318,4.0,10.0,40,0.00,,,0.00,,2013-03-25 22:12:00,
2013-03-25 15:22:00,56.0,31.0,29.98,NW,305,5.0,10.0,39,0.00,,,0.00,,2013-03-25 22:22:00,
2013-03-25 15:32:00,56.0,31.0,29.98,NW,305,5.0,10.0,39,0.00,,,0.00,,2013-03-25 22:32:00,
2013-03-25 15:42:00,56.0,31.0,29.98,NW,305,5.0,10.0,39,0.00,,,0.00,,2013-03-25 22:42:00,
2013-03-25 15:52:00,57.0,32.0,29.97,NNW,330,6.0,11.0,39,0.00,,,0.00,,2013-03-25 22:52:00,
2013-03-25 16:02:00,57.0,32.0,29.97,NNW,330,6.0,11.0,39,0.00,,,0.00,,2013-03-25 23:02:00,
2013-03-25 16:12:00,57.0,32.0,29.97,NNW,330,6.0,11.0,39,0.00,,,0.00,,2013-03-25 23:12:00,
2013-03-25 16:22:00,59.0,32.0,29.96,NW,316,3.0,7.0,36,0.00,,,0.00,,2013-03-25 23:22:00,
2013-03-25 16:31:00,59.0,32.0,29.96,NW,316,3.0,7.0,36,0.00,,,0.00,,2013-03-25 23:31:00,
2013-03-25 16:43:00,59.0,32.0,29.96,NW,316,3.0,7.0,36,0.00,,,0.00,,2013-03-25 23:43:00,
2013-03-25 16:52:00,58.0,31.0,29.95,NW,320,6.0,10.0,36,0.00,,,0.00,,2013-03-25 23:52:00,
2013-03-25 17:02:00,58.0,31.0,29.95,NW,320,6.0,10.0,36,0.00,,,0.00,,2013-03-26 00:02:00,
2013-03-25 17:12:00,58.0,31.0,29.95,NW,320,6.0,10.0,36,0.00,,,0.00,,2013-03-26 00:12:00,
2013-03-25 17:22:00,58.0,31.0,29.94,North,7,6.0,11.0,36,0.00,,,0.00,,2013-03-26 00:22:00,
2013-03-25 17:31:00,58.0,31.0,29.94,North,7,6.0,11.0,36,0.00,,,0.00,,2013-03-26 00:31:00,
2013-03-25 17:42:00,58.0,31.0,29.94,North,7,6.0,11.0,36,0.00,,,0.00,,2013-03-26 00:42:00,
2013-03-25 17:52:00,57.0,31.0,29.93,NW,321,7.0,10.0,37,0.00,,,0.00,,2013-03-26 00:52:00,
2013-03-25 18:02:00,57.0,31.0,29.93,NW,321,7.0,10.0,37,0.00,,,0.00,,2013-03-26 01:02:00,
2013-03-25 18:11:00,57.0,31.0,29.93,NW,321,7.0,10.0,37,0.00,,,0.00,,2013-03-26 01:11:00,
2013-03-25 18:22:00,56.0,31.0,29.93,WNW,291,7.0,10.0,38,0.00,,,0.00,,2013-03-26 01:22:00,
2013-03-25 18:32:00,56.0,31.0,29.93,WNW,291,7.0,10.0,38,0.00,,,0.00,,2013-03-26 01:32:00,
2013-03-25 18:42:00,56.0,31.0,29.93,WNW,291,7.0,10.0,38,0.00,,,0.00,,2013-03-26 01:42:00,
2013-03-25 18:52:00,56.0,31.0,29.93,NNW,339,3.0,9.0,39,0.00,,,0.00,,2013-03-26 01:52:00,
2013-03-25 19:01:00,56.0,31.0,29.93,NNW,339,3.0,9.0,39,0.00,,,0.00,,2013-03-26 02:01:00,
2013-03-25 19:12:00,56.0,31.0,29.93,NNW,339,3.0,9.0,39,0.00,,,0.00,,2013-03-26 02:12:00,
2013-03-25 19:22:00,56.0,32.0,29.93,NNE,20,3.0,7.0,40,0.00,,,0.00,,2013-03-26 02:22:00,
2013-03-25 19:31:00,56.0,32.0,29.93,NNE,20,3.0,7.0,40,0.00,,,0.00,,2013-03-26 02:31:00,
2013-03-25 19:43:00,56.0,32.0,29.93,NNE,20,3.0,7.0,40,0.00,,,0.00,,2013-03-26 02:43:00,
2013-03-25 19:52:00,54.0,31.0,29.93,NNW,339,2.0,6.0,42,0.00,,,0.00,,2013-03-26 02:52:00,
2013-03-25 20:01:00,54.0,31.0,29.93,NNW,339,2.0,6.0,42,0.00,,,0.00,,2013-03-26 03:01:00,
2013-03-25 20:12:00,54.0,31.0,29.93,NNW,339,2.0,6.0,42,0.00,,,0.00,,2013-03-26 03:12:00,
2013-03-25 20:22:00,53.0,33.0,29.93,NE,36,4.0,7.0,47,0.00,,,0.00,,2013-03-26 03:22:00,
2013-03-25 20:33:00,53.0,33.0,29.93,NE,36,4.0,7.0,47,0.00,,,0.00,,2013-03-26 03:33:00,
2013-03-25 20:42:00,53.0,33.0,29.93,NE,36,4.0,7.0,47,0.00,,,0.00,,2013-03-26 03:42:00,
2013-03-25 20:53:00,52.0,35.0,29.94,NW,312,3.0,7.0,52,0.00,,,0.00,,2013-03-26 03:53:00,
2013-03-25 21:03:00,52.0,35.0,29.94,NW,312,3.0,7.0,52,0.00,,,0.00,,2013-03-26 04:03:00,
2013-03-25 21:12:00,52.0,35.0,29.94,NW,312,3.0,7.0,52,0.00,,,0.00,,2013-03-26 04:12:00,
2013-03-25 21:22:00,51.0,34.0,29.95,NNE,20,3.0,6.0,53,0.00,,,0.00,,2013-03-26 04:22:00,
2013-03-25 21:32:00,51.0,34.0,29.95,NNE,20,3.0,6.0,53,0.00,,,0.00,,2013-03-26 04:32:00,
2013-03-25 21:43:00,51.0,34.0,29.95,NNE,20,3.0,6.0,53,0.00,,,0.00,,2013-03-26 04:43:00,
2013-03-25 21:52:00,51.0,34.0,29.95,NNE,27,3.0,5.0,52,0.00,,,0.00,,2013-03-26 04:52:00,
2013-03-25 22:02:00,51.0,34.0,29.95,NNE,27,3.0,5.0,52,0.00,,,0.00,,2013-03-26 05:02:00,
2013-03-25 22:12:00,51.0,34.0,29.95,NNE,27,3.0,5.0,52,0.00,,,0.00,,2013-03-26 05:12:00,
2013-03-25 22:22:00,52.0,35.0,29.95,NE,46,4.0,7.0,53,0.00,,,0.00,,2013-03-26 05:22:00,
2013-03-25 22:32:00,52.0,35.0,29.95,NE,46,4.0,7.0,53,0.00,,,0.00,,2013-03-26 05:32:00,
2013-03-25 22:42:00,52.0,35.0,29.95,NE,46,4.0,7.0,53,0.00,,,0.00,,2013-03-26 05:42:00,
2013-03-25 22:52:00,51.0,35.0,29.96,NNE,32,2.0,5.0,55,0.00,,,0.00,,2013-03-26 05:52:00,
2013-03-25 23:01:00,51.0,35.0,29.96,NNE,32,2.0,5.0,55,0.00,,,0.00,,2013-03-26 06:01:00,
2013-03-25 23:12:00,51.0,35.0,29.96,NNE,32,2.0,5.0,55,0.00,,,0.00,,2013-03-26 06:12:00,
2013-03-25 23:21:00,51.0,36.0,29.96,WNW,297,1.0,3.0,56,0.00,,,0.00,,2013-03-26 06:21:00,
2013-03-25 23:31:00,51.0,36.0,29.96,WNW,297,1.0,3.0,56,0.00,,,0.00,,2013-03-26 06:31:00,
2013-03-25 23:43:00,51.0,36.0,29.96,WNW,297,1.0,3.0,56,0.00,,,0.00,,2013-03-26 06:43:00,
2013-03-25 23:52:00,49.0,37.0,29.96,NNW,338,3.0,6.0,62,0.00,,,0.00,,2013-03-26 06:52:00,